Port Said/El Gamil, Egypt
Current Conditions -  °F | °C
As of 1:00 AM on Sunday 23 Nov 2014 (Local Time) from HEPS Reporting Station
Few Clouds Few Clouds  
Wind Chill: 66°   Ceiling: Unl
Heat Index: 66°   Visibility: 6mi
Dew Point: 50°   Wind: 9mph
Humidity: 56%   Direction: 260°W
Pressure: 30.03"   Gusts: NA
Location:  31.28°N, 32.23°E
Report Text: HEPS 222300Z 26008KT 9999 FEW030 19/10 Q1017 NOSIG
Loading
Personal Weather Stations






























Interactive Weather Map New forecast layout! Learn more

10-Day Weather Forecast

Advertisements
Track Severe Weather on mobile